< Cyclone 198402 1984 Season Cyclone 198404 >
Cyclone 198403 (QUENTON)
General InformationTrack Information on Google MapsList of All Images || ResourceGoogle EarthGE AnimationAtom FeedGeoJSON
Detalied Best Track (Time Zone = UTC)
Year Month Day Hour Lat. Long. Pressure (hPa) Wind (kt) Class Image Chart
1983 11 26 00 -10.4 112.8 1004 0 0 Image --
1983 11 26 06 -10.6 112.9 1004 0 0 Image --
1983 11 26 12 -10.9 113.0 1004 0 0 Image --
1983 11 26 18 -11.3 113.0 1002 0 0 Image --
1983 11 27 00 -11.9 113.1 1000 0 0 Image --
1983 11 27 06 -12.5 113.3 1000 0 0 Image --
1983 11 27 12 -12.9 114.0 998 0 0 Image --
1983 11 27 18 -13.5 114.7 994 0 0 Image --
1983 11 28 00 -14.4 115.3 990 0 0 Image --
1983 11 28 06 -14.9 115.6 988 0 0 Image --
1983 11 28 12 -15.3 116.4 985 0 0 Image --
1983 11 28 18 -15.7 117.2 980 0 0 Image --
1983 11 29 00 -16.7 118.4 965 0 0 Image --
1983 11 29 03 -17.3 119.0 955 0 0 Image --
1983 11 29 06 -17.7 119.6 955 0 0 Image --
1983 11 29 09 -18.3 120.2 955 0 0 Image --
1983 11 29 12 -18.9 120.6 955 0 0 Image --
1983 11 29 15 -19.5 121.3 957 0 0 Image --
1983 11 29 18 -20.4 121.7 965 0 0 Image --
1983 11 29 21 -20.8 122.3 970 0 0 Image --
1983 11 30 00 -21.2 122.9 980 0 0 Image --
1983 11 30 03 -21.4 124.4 990 0 0 Image --
< Cyclone 198402 1984 Season Cyclone 198404 >

Help